sensor_id;sensor_type;location;lat;lon;timestamp;pressure;altitude;pressure_sealevel;temperature;humidity
32131;BME280;18639;50.716;7.086;2022-10-26T00:02:07;100282.22;;;13.09;100.00
32131;BME280;18639;50.716;7.086;2022-10-26T00:04:33;100279.78;;;13.08;100.00
32131;BME280;18639;50.716;7.086;2022-10-26T00:06:58;100266.91;;;13.06;100.00
32131;BME280;18639;50.716;7.086;2022-10-26T00:09:23;100270.44;;;13.05;100.00
32131;BME280;18639;50.716;7.086;2022-10-26T00:11:49;100263.59;;;13.04;100.00
32131;BME280;18639;50.716;7.086;2022-10-26T00:14:14;100245.22;;;12.96;100.00
32131;BME280;18639;50.716;7.086;2022-10-26T00:16:39;100265.25;;;13.05;100.00
32131;BME280;18639;50.716;7.086;2022-10-26T00:19:05;100257.25;;;13.08;100.00
32131;BME280;18639;50.716;7.086;2022-10-26T00:21:30;100264.22;;;13.08;100.00
32131;BME280;18639;50.716;7.086;2022-10-26T00:23:58;100243.78;;;12.92;100.00
32131;BME280;18639;50.716;7.086;2022-10-26T00:26:23;100265.25;;;13.05;100.00
32131;BME280;18639;50.716;7.086;2022-10-26T00:28:52;100265.03;;;13.08;100.00
32131;BME280;18639;50.716;7.086;2022-10-26T00:31:18;100261.25;;;13.01;100.00
32131;BME280;18639;50.716;7.086;2022-10-26T00:33:44;100272.81;;;13.08;100.00
32131;BME280;18639;50.716;7.086;2022-10-26T00:36:10;100265.50;;;13.02;100.00
32131;BME280;18639;50.716;7.086;2022-10-26T00:38:37;100265.50;;;13.02;100.00
32131;BME280;18639;50.716;7.086;2022-10-26T00:41:03;100272.31;;;13.03;100.00
32131;BME280;18639;50.716;7.086;2022-10-26T00:45:54;100264.53;;;13.03;100.00
32131;BME280;18639;50.716;7.086;2022-10-26T00:48:27;100255.34;;;12.99;100.00
32131;BME280;18639;50.716;7.086;2022-10-26T00:50:53;100226.19;;;12.74;100.00
32131;BME280;18639;50.716;7.086;2022-10-26T00:53:20;100258.88;;;12.98;100.00
32131;BME280;18639;50.716;7.086;2022-10-26T00:55:49;100257.69;;;12.91;100.00
32131;BME280;18639;50.716;7.086;2022-10-26T00:58:15;100273.97;;;13.04;100.00
32131;BME280;18639;50.716;7.086;2022-10-26T01:00:42;100238.59;;;12.81;100.00
32131;BME280;18639;50.716;7.086;2022-10-26T01:03:09;100265.50;;;13.02;100.00
32131;BME280;18639;50.716;7.086;2022-10-26T01:05:38;100248.75;;;12.95;100.00
32131;BME280;18639;50.716;7.086;2022-10-26T01:08:04;100218.78;;;12.80;100.00
32131;BME280;18639;50.716;7.086;2022-10-26T01:10:30;100268.31;;;13.11;100.00
32131;BME280;18639;50.716;7.086;2022-10-26T01:12:57;100249.94;;;13.02;100.00
32131;BME280;18639;50.716;7.086;2022-10-26T01:15:47;100250.41;;;13.07;100.00
32131;BME280;18639;50.716;7.086;2022-10-26T01:18:39;100247.56;;;13.11;100.00
32131;BME280;18639;50.716;7.086;2022-10-26T01:41:09;100218.34;;;13.08;100.00
32131;BME280;18639;50.716;7.086;2022-10-26T01:43:39;100210.06;;;13.03;100.00
32131;BME280;18639;50.716;7.086;2022-10-26T01:46:06;100205.84;;;13.02;100.00
32131;BME280;18639;50.716;7.086;2022-10-26T01:48:35;100219.53;;;13.16;100.00
32131;BME280;18639;50.716;7.086;2022-10-26T01:51:02;100199.47;;;13.06;100.00
32131;BME280;18639;50.716;7.086;2022-10-26T01:53:29;100218.13;;;13.23;100.00
32131;BME280;18639;50.716;7.086;2022-10-26T01:55:55;100219.06;;;13.33;100.00
32131;BME280;18639;50.716;7.086;2022-10-26T01:58:43;100210.31;;;13.34;100.00
32131;BME280;18639;50.716;7.086;2022-10-26T02:07:02;100195.19;;;13.50;100.00
32131;BME280;18639;50.716;7.086;2022-10-26T02:15:18;100200.31;;;13.83;100.00
32131;BME280;18639;50.716;7.086;2022-10-26T02:18:00;100168.91;;;13.75;100.00
32131;BME280;18639;50.716;7.086;2022-10-26T02:20:34;100165.94;;;13.80;100.00
32131;BME280;18639;50.716;7.086;2022-10-26T02:23:03;100189.16;;;13.93;100.00
32131;BME280;18639;50.716;7.086;2022-10-26T02:25:32;100192.91;;;14.00;100.00
32131;BME280;18639;50.716;7.086;2022-10-26T02:28:06;100182.66;;;13.98;100.00
32131;BME280;18639;50.716;7.086;2022-10-26T02:30:34;100171.81;;;13.93;100.00
32131;BME280;18639;50.716;7.086;2022-10-26T02:33:01;100184.16;;;14.01;100.00
32131;BME280;18639;50.716;7.086;2022-10-26T02:35:30;100190.69;;;14.16;100.00
32131;BME280;18639;50.716;7.086;2022-10-26T02:37:58;100188.25;;;14.14;100.00
32131;BME280;18639;50.716;7.086;2022-10-26T02:40:27;100151.22;;;14.01;100.00
32131;BME280;18639;50.716;7.086;2022-10-26T02:42:55;100155.09;;;14.07;100.00
32131;BME280;18639;50.716;7.086;2022-10-26T02:45:25;100171.28;;;14.31;100.00
32131;BME280;18639;50.716;7.086;2022-10-26T02:47:53;100165.88;;;14.23;100.00
32131;BME280;18639;50.716;7.086;2022-10-26T02:50:21;100135.94;;;14.08;100.00
32131;BME280;18639;50.716;7.086;2022-10-26T02:53:13;100158.06;;;14.23;100.00
32131;BME280;18639;50.716;7.086;2022-10-26T02:55:46;100155.84;;;14.18;100.00
32131;BME280;18639;50.716;7.086;2022-10-26T02:58:17;100139.44;;;13.97;100.00
32131;BME280;18639;50.716;7.086;2022-10-26T03:00:44;100159.72;;;14.03;100.00
32131;BME280;18639;50.716;7.086;2022-10-26T03:03:10;100149.66;;;14.10;100.00
32131;BME280;18639;50.716;7.086;2022-10-26T03:05:41;100172.78;;;14.13;100.00
32131;BME280;18639;50.716;7.086;2022-10-26T03:08:06;100140.25;;;13.98;100.00
32131;BME280;18639;50.716;7.086;2022-10-26T03:10:34;100174.31;;;14.15;100.00
32131;BME280;18639;50.716;7.086;2022-10-26T03:13:03;100127.66;;;13.93;100.00
32131;BME280;18639;50.716;7.086;2022-10-26T03:15:29;100176.66;;;14.18;100.00
32131;BME280;18639;50.716;7.086;2022-10-26T03:17:54;100174.44;;;14.14;100.00
32131;BME280;18639;50.716;7.086;2022-10-26T03:20:19;100187.66;;;14.11;100.00
32131;BME280;18639;50.716;7.086;2022-10-26T03:22:46;100186.81;;;14.10;100.00
32131;BME280;18639;50.716;7.086;2022-10-26T03:25:12;100158.31;;;13.99;100.00
32131;BME280;18639;50.716;7.086;2022-10-26T03:27:39;100165.59;;;14.05;100.00
32131;BME280;18639;50.716;7.086;2022-10-26T03:30:05;100162.53;;;14.00;100.00
32131;BME280;18639;50.716;7.086;2022-10-26T03:32:31;100181.56;;;14.01;100.00
32131;BME280;18639;50.716;7.086;2022-10-26T03:34:56;100179.22;;;13.98;100.00
32131;BME280;18639;50.716;7.086;2022-10-26T03:37:21;100185.38;;;13.97;100.00
32131;BME280;18639;50.716;7.086;2022-10-26T03:39:46;100182.06;;;13.95;100.00
32131;BME280;18639;50.716;7.086;2022-10-26T03:42:12;100178.19;;;13.89;100.00
32131;BME280;18639;50.716;7.086;2022-10-26T03:44:37;100185.09;;;14.00;100.00
32131;BME280;18639;50.716;7.086;2022-10-26T03:47:02;100196.31;;;14.00;100.00
32131;BME280;18639;50.716;7.086;2022-10-26T03:49:27;100191.97;;;14.01;100.00
32131;BME280;18639;50.716;7.086;2022-10-26T03:51:53;100185.25;;;13.98;100.00
32131;BME280;18639;50.716;7.086;2022-10-26T03:54:18;100181.00;;;13.97;100.00
32131;BME280;18639;50.716;7.086;2022-10-26T03:56:43;100180.28;;;13.95;100.00
32131;BME280;18639;50.716;7.086;2022-10-26T03:59:08;100181.00;;;13.97;100.00
32131;BME280;18639;50.716;7.086;2022-10-26T04:01:34;100171.44;;;13.98;100.00
32131;BME280;18639;50.716;7.086;2022-10-26T04:03:59;100188.19;;;14.05;100.00
32131;BME280;18639;50.716;7.086;2022-10-26T04:06:24;100168.63;;;13.89;100.00
32131;BME280;18639;50.716;7.086;2022-10-26T04:08:50;100185.81;;;14.02;100.00
32131;BME280;18639;50.716;7.086;2022-10-26T04:11:15;100191.97;;;14.01;100.00
32131;BME280;18639;50.716;7.086;2022-10-26T04:13:41;100188.69;;;13.99;100.00
32131;BME280;18639;50.716;7.086;2022-10-26T04:16:06;100181.50;;;13.91;100.00
32131;BME280;18639;50.716;7.086;2022-10-26T04:18:31;100166.53;;;13.83;100.00
32131;BME280;18639;50.716;7.086;2022-10-26T04:21:00;100190.81;;;13.94;100.00
32131;BME280;18639;50.716;7.086;2022-10-26T04:23:26;100158.44;;;13.66;100.00
32131;BME280;18639;50.716;7.086;2022-10-26T04:25:51;100198.63;;;13.94;100.00
32131;BME280;18639;50.716;7.086;2022-10-26T04:28:16;100194.59;;;13.89;100.00
32131;BME280;18639;50.716;7.086;2022-10-26T04:30:41;100181.50;;;13.91;100.00
32131;BME280;18639;50.716;7.086;2022-10-26T04:33:07;100158.06;;;13.70;100.00
32131;BME280;18639;50.716;7.086;2022-10-26T04:35:32;100199.09;;;13.87;100.00
32131;BME280;18639;50.716;7.086;2022-10-26T04:37:59;100202.03;;;13.94;100.00
32131;BME280;18639;50.716;7.086;2022-10-26T04:40:28;100202.53;;;13.88;100.00
32131;BME280;18639;50.716;7.086;2022-10-26T04:42:54;100190.59;;;13.85;100.00
32131;BME280;18639;50.716;7.086;2022-10-26T04:45:20;100191.31;;;13.87;100.00
32131;BME280;18639;50.716;7.086;2022-10-26T04:47:45;100149.41;;;13.49;100.00
32131;BME280;18639;50.716;7.086;2022-10-26T04:50:11;100187.06;;;13.86;100.00
32131;BME280;18639;50.716;7.086;2022-10-26T04:52:37;100186.13;;;13.87;100.00
32131;BME280;18639;50.716;7.086;2022-10-26T04:55:03;100188.56;;;13.89;100.00
32131;BME280;18639;50.716;7.086;2022-10-26T04:57:32;100192.72;;;13.91;100.00
32131;BME280;18639;50.716;7.086;2022-10-26T04:59:58;100155.94;;;13.75;100.00
32131;BME280;18639;50.716;7.086;2022-10-26T05:02:24;100171.59;;;13.85;100.00
32131;BME280;18639;50.716;7.086;2022-10-26T05:04:49;100104.81;;;13.44;100.00
32131;BME280;18639;50.716;7.086;2022-10-26T05:07:15;100157.09;;;13.82;100.00
32131;BME280;18639;50.716;7.086;2022-10-26T05:09:40;100115.75;;;13.59;100.00
32131;BME280;18639;50.716;7.086;2022-10-26T05:12:05;100175.25;;;13.94;100.00
32131;BME280;18639;50.716;7.086;2022-10-26T05:14:30;100157.53;;;13.87;100.00
32131;BME280;18639;50.716;7.086;2022-10-26T05:16:56;100080.06;;;13.40;100.00
32131;BME280;18639;50.716;7.086;2022-10-26T05:19:22;100165.91;;;13.91;100.00
32131;BME280;18639;50.716;7.086;2022-10-26T05:21:47;100098.53;;;13.46;100.00
32131;BME280;18639;50.716;7.086;2022-10-26T05:24:12;100150.47;;;13.78;100.00
32131;BME280;18639;50.716;7.086;2022-10-26T05:26:37;100146.22;;;13.88;100.00
32131;BME280;18639;50.716;7.086;2022-10-26T05:29:03;100159.38;;;13.97;100.00
32131;BME280;18639;50.716;7.086;2022-10-26T05:31:28;100170.34;;;14.00;100.00
32131;BME280;18639;50.716;7.086;2022-10-26T05:33:53;100164.78;;;14.05;100.00
32131;BME280;18639;50.716;7.086;2022-10-26T05:36:19;100172.31;;;14.08;100.00
32131;BME280;18639;50.716;7.086;2022-10-26T05:38:45;100177.53;;;14.08;100.00
32131;BME280;18639;50.716;7.086;2022-10-26T05:41:10;100161.00;;;14.09;100.00
32131;BME280;18639;50.716;7.086;2022-10-26T05:43:35;100177.03;;;14.14;100.00
32131;BME280;18639;50.716;7.086;2022-10-26T05:46:00;100178.69;;;14.15;100.00
32131;BME280;18639;50.716;7.086;2022-10-26T05:48:26;100185.50;;;14.16;100.00
32131;BME280;18639;50.716;7.086;2022-10-26T05:50:51;100176.09;;;14.15;100.00
32131;BME280;18639;50.716;7.086;2022-10-26T05:53:16;100178.19;;;14.21;100.00
32131;BME280;18639;50.716;7.086;2022-10-26T05:55:42;100175.09;;;14.16;100.00
32131;BME280;18639;50.716;7.086;2022-10-26T05:58:11;100138.94;;;14.03;100.00
32131;BME280;18639;50.716;7.086;2022-10-26T06:00:47;100170.44;;;14.10;100.00
32131;BME280;18639;50.716;7.086;2022-10-26T06:03:41;100184.28;;;14.31;100.00
32131;BME280;18639;50.716;7.086;2022-10-26T06:06:10;100196.28;;;14.32;100.00
32131;BME280;18639;50.716;7.086;2022-10-26T06:08:37;100193.97;;;14.29;100.00
32131;BME280;18639;50.716;7.086;2022-10-26T06:11:03;100193.50;;;14.24;100.00
32131;BME280;18639;50.716;7.086;2022-10-26T06:13:28;100215.97;;;14.25;100.00
32131;BME280;18639;50.716;7.086;2022-10-26T06:19:35;100211.09;;;14.31;100.00
32131;BME280;18639;50.716;7.086;2022-10-26T06:22:13;100227.47;;;14.32;100.00
32131;BME280;18639;50.716;7.086;2022-10-26T06:30:19;100206.06;;;14.19;100.00
32131;BME280;18639;50.716;7.086;2022-10-26T06:32:47;100207.94;;;14.17;100.00
32131;BME280;18639;50.716;7.086;2022-10-26T06:35:36;100218.94;;;14.20;100.00
32131;BME280;18639;50.716;7.086;2022-10-26T06:38:10;100199.03;;;14.10;100.00
32131;BME280;18639;50.716;7.086;2022-10-26T06:40:38;100218.13;;;14.20;100.00
32131;BME280;18639;50.716;7.086;2022-10-26T06:43:15;100218.50;;;14.15;100.00
32131;BME280;18639;50.716;7.086;2022-10-26T06:45:44;100207.31;;;14.04;100.00
32131;BME280;18639;50.716;7.086;2022-10-26T06:48:18;100224.25;;;14.19;100.00
32131;BME280;18639;50.716;7.086;2022-10-26T06:50:53;100239.72;;;14.20;100.00
32131;BME280;18639;50.716;7.086;2022-10-26T06:53:25;100238.66;;;14.23;100.00
32131;BME280;18639;50.716;7.086;2022-10-26T06:55:51;100211.63;;;14.14;100.00
32131;BME280;18639;50.716;7.086;2022-10-26T06:58:23;100235.09;;;14.24;100.00
32131;BME280;18639;50.716;7.086;2022-10-26T07:00:52;100239.09;;;14.28;100.00
32131;BME280;18639;50.716;7.086;2022-10-26T07:03:18;100249.94;;;14.33;100.00
32131;BME280;18639;50.716;7.086;2022-10-26T07:05:44;100225.09;;;14.19;100.00
32131;BME280;18639;50.716;7.086;2022-10-26T07:08:10;100239.09;;;14.28;100.00
32131;BME280;18639;50.716;7.086;2022-10-26T07:10:35;100249.94;;;14.33;100.00
32131;BME280;18639;50.716;7.086;2022-10-26T07:13:06;100248.16;;;14.33;100.00
32131;BME280;18639;50.716;7.086;2022-10-26T07:15:33;100259.41;;;14.34;100.00
32131;BME280;18639;50.716;7.086;2022-10-26T07:17:59;100260.22;;;14.34;100.00
32131;BME280;18639;50.716;7.086;2022-10-26T07:20:24;100270.50;;;14.36;100.00
32131;BME280;18639;50.716;7.086;2022-10-26T07:22:54;100276.38;;;14.49;100.00
32131;BME280;18639;50.716;7.086;2022-10-26T07:25:20;100263.88;;;14.43;100.00
32131;BME280;18639;50.716;7.086;2022-10-26T07:27:46;100260.09;;;14.36;100.00
32131;BME280;18639;50.716;7.086;2022-10-26T07:30:12;100257.16;;;14.41;100.00
32131;BME280;18639;50.716;7.086;2022-10-26T07:32:38;100259.88;;;14.39;100.00
32131;BME280;18639;50.716;7.086;2022-10-26T07:35:04;100273.88;;;14.48;100.00
32131;BME280;18639;50.716;7.086;2022-10-26T07:37:29;100288.16;;;14.53;100.00
32131;BME280;18639;50.716;7.086;2022-10-26T07:39:55;100301.13;;;14.64;100.00
32131;BME280;18639;50.716;7.086;2022-10-26T07:42:20;100269.16;;;14.53;100.00
32131;BME280;18639;50.716;7.086;2022-10-26T07:44:45;100226.53;;;14.33;100.00
32131;BME280;18639;50.716;7.086;2022-10-26T07:47:11;100284.50;;;14.77;100.00
32131;BME280;18639;50.716;7.086;2022-10-26T07:49:36;100294.13;;;14.86;100.00
32131;BME280;18639;50.716;7.086;2022-10-26T07:52:01;100275.19;;;14.95;100.00
32131;BME280;18639;50.716;7.086;2022-10-26T07:54:27;100264.78;;;14.74;100.00
32131;BME280;18639;50.716;7.086;2022-10-26T07:56:52;100266.72;;;14.82;100.00
32131;BME280;18639;50.716;7.086;2022-10-26T07:59:18;100274.97;;;14.87;100.00
32131;BME280;18639;50.716;7.086;2022-10-26T08:01:43;100282.53;;;14.90;100.00
32131;BME280;18639;50.716;7.086;2022-10-26T08:04:08;100273.38;;;14.74;100.00
32131;BME280;18639;50.716;7.086;2022-10-26T08:06:34;100263.88;;;14.64;100.00
32131;BME280;18639;50.716;7.086;2022-10-26T08:08:59;100265.53;;;14.65;100.00
32131;BME280;18639;50.716;7.086;2022-10-26T08:11:24;100278.28;;;14.89;100.00
32131;BME280;18639;50.716;7.086;2022-10-26T08:13:51;100283.59;;;15.08;100.00
32131;BME280;18639;50.716;7.086;2022-10-26T08:16:17;100248.50;;;15.02;100.00
32131;BME280;18639;50.716;7.086;2022-10-26T08:18:42;100255.44;;;15.23;100.00
32131;BME280;18639;50.716;7.086;2022-10-26T08:21:10;100271.22;;;15.31;100.00
32131;BME280;18639;50.716;7.086;2022-10-26T08:23:37;100278.63;;;15.26;100.00
32131;BME280;18639;50.716;7.086;2022-10-26T08:26:03;100290.97;;;15.33;100.00
32131;BME280;18639;50.716;7.086;2022-10-26T08:28:28;100298.78;;;15.33;100.00
32131;BME280;18639;50.716;7.086;2022-10-26T08:30:55;100284.38;;;15.29;100.00
32131;BME280;18639;50.716;7.086;2022-10-26T08:33:20;100288.97;;;15.46;100.00
32131;BME280;18639;50.716;7.086;2022-10-26T08:35:45;100299.66;;;15.74;100.00
32131;BME280;18639;50.716;7.086;2022-10-26T08:38:11;100304.78;;;16.04;100.00
32131;BME280;18639;50.716;7.086;2022-10-26T08:40:39;100305.38;;;16.36;100.00
32131;BME280;18639;50.716;7.086;2022-10-26T08:43:19;100308.81;;;16.47;100.00
32131;BME280;18639;50.716;7.086;2022-10-26T08:45:59;100296.31;;;16.21;100.00
32131;BME280;18639;50.716;7.086;2022-10-26T08:48:31;100301.94;;;16.17;100.00
32131;BME280;18639;50.716;7.086;2022-10-26T08:51:01;100309.75;;;16.26;100.00
32131;BME280;18639;50.716;7.086;2022-10-26T08:56:58;100299.63;;;16.23;100.00
32131;BME280;18639;50.716;7.086;2022-10-26T08:59:24;100306.44;;;16.24;100.00
32131;BME280;18639;50.716;7.086;2022-10-26T09:01:53;100304.53;;;16.26;100.00
32131;BME280;18639;50.716;7.086;2022-10-26T09:04:23;100306.72;;;16.21;100.00
32131;BME280;18639;50.716;7.086;2022-10-26T09:06:55;100306.19;;;16.18;100.00
32131;BME280;18639;50.716;7.086;2022-10-26T09:09:42;100307.03;;;16.18;100.00
32131;BME280;18639;50.716;7.086;2022-10-26T09:20:23;100331.56;;;16.16;100.00
32131;BME280;18639;50.716;7.086;2022-10-26T09:23:07;100326.66;;;16.22;100.00
32131;BME280;18639;50.716;7.086;2022-10-26T09:25:39;100335.00;;;16.35;100.00
32131;BME280;18639;50.716;7.086;2022-10-26T09:28:17;100340.50;;;16.52;100.00
32131;BME280;18639;50.716;7.086;2022-10-26T09:30:43;100331.91;;;16.80;100.00
32131;BME280;18639;50.716;7.086;2022-10-26T09:33:15;100337.19;;;17.17;100.00
32131;BME280;18639;50.716;7.086;2022-10-26T09:35:45;100333.00;;;17.34;100.00
32131;BME280;18639;50.716;7.086;2022-10-26T09:38:27;100336.41;;;17.44;100.00
32131;BME280;18639;50.716;7.086;2022-10-26T09:41:16;100335.47;;;17.45;100.00
32131;BME280;18639;50.716;7.086;2022-10-26T09:43:49;100349.63;;;17.79;100.00
32131;BME280;18639;50.716;7.086;2022-10-26T09:46:23;100333.22;;;17.87;100.00
32131;BME280;18639;50.716;7.086;2022-10-26T09:49:03;100348.72;;;17.98;100.00
32131;BME280;18639;50.716;7.086;2022-10-26T09:51:36;100348.03;;;17.96;100.00
32131;BME280;18639;50.716;7.086;2022-10-26T09:54:07;100342.16;;;18.12;100.00
32131;BME280;18639;50.716;7.086;2022-10-26T09:56:38;100347.78;;;18.17;100.00
32131;BME280;18639;50.716;7.086;2022-10-26T09:59:04;100311.22;;;17.89;100.00
32131;BME280;18639;50.716;7.086;2022-10-26T10:01:33;100360.13;;;18.24;100.00
32131;BME280;18639;50.716;7.086;2022-10-26T10:07:11;100360.59;;;18.37;100.00
32131;BME280;18639;50.716;7.086;2022-10-26T10:09:39;100350.75;;;18.22;100.00
32131;BME280;18639;50.716;7.086;2022-10-26T10:12:05;100374.41;;;18.30;100.00
32131;BME280;18639;50.716;7.086;2022-10-26T10:14:57;100376.31;;;18.37;100.00
32131;BME280;18639;50.716;7.086;2022-10-26T10:17:23;100385.34;;;18.43;100.00
32131;BME280;18639;50.716;7.086;2022-10-26T10:19:50;100389.69;;;18.52;100.00
32131;BME280;18639;50.716;7.086;2022-10-26T10:24:58;100398.09;;;18.73;100.00
32131;BME280;18639;50.716;7.086;2022-10-26T10:27:24;100393.84;;;18.72;100.00
32131;BME280;18639;50.716;7.086;2022-10-26T10:29:58;100406.84;;;18.82;100.00
32131;BME280;18639;50.716;7.086;2022-10-26T10:32:25;100398.47;;;18.78;99.17
32131;BME280;18639;50.716;7.086;2022-10-26T10:34:53;100399.44;;;18.77;98.61
32131;BME280;18639;50.716;7.086;2022-10-26T10:39:56;100387.63;;;18.73;100.00
32131;BME280;18639;50.716;7.086;2022-10-26T10:42:26;100395.03;;;18.78;98.80
32131;BME280;18639;50.716;7.086;2022-10-26T10:44:54;100414.84;;;18.98;99.96
32131;BME280;18639;50.716;7.086;2022-10-26T10:47:31;100426.66;;;19.02;98.81
32131;BME280;18639;50.716;7.086;2022-10-26T10:50:01;100424.84;;;19.03;98.25
32131;BME280;18639;50.716;7.086;2022-10-26T10:52:30;100425.59;;;19.13;97.25
32131;BME280;18639;50.716;7.086;2022-10-26T10:55:17;100444.22;;;19.27;97.05
32131;BME280;18639;50.716;7.086;2022-10-26T11:00:28;100445.19;;;19.26;95.71
32131;BME280;18639;50.716;7.086;2022-10-26T11:05:59;100449.44;;;19.02;96.77
32131;BME280;18639;50.716;7.086;2022-10-26T11:08:33;100448.84;;;18.90;97.51
32131;BME280;18639;50.716;7.086;2022-10-26T11:11:10;100451.38;;;19.00;98.01
32131;BME280;18639;50.716;7.086;2022-10-26T11:13:57;100442.38;;;19.02;96.30
32131;BME280;18639;50.716;7.086;2022-10-26T11:16:30;100455.09;;;19.15;93.97
32131;BME280;18639;50.716;7.086;2022-10-26T11:19:14;100447.19;;;19.07;93.66
32131;BME280;18639;50.716;7.086;2022-10-26T11:21:43;100431.75;;;19.04;94.60
32131;BME280;18639;50.716;7.086;2022-10-26T11:27:47;100441.28;;;19.30;93.91
32131;BME280;18639;50.716;7.086;2022-10-26T11:30:27;100458.97;;;19.46;92.65
32131;BME280;18639;50.716;7.086;2022-10-26T11:41:20;100476.47;;;19.63;93.75
32131;BME280;18639;50.716;7.086;2022-10-26T11:44:04;100471.72;;;19.67;93.25
32131;BME280;18639;50.716;7.086;2022-10-26T11:46:44;100458.31;;;19.70;93.14
32131;BME280;18639;50.716;7.086;2022-10-26T11:49:14;100465.03;;;19.72;93.34
32131;BME280;18639;50.716;7.086;2022-10-26T11:54:48;100468.22;;;19.58;90.68
32131;BME280;18639;50.716;7.086;2022-10-26T11:57:20;100466.59;;;19.57;91.84
32131;BME280;18639;50.716;7.086;2022-10-26T11:59:53;100472.34;;;19.61;91.58
32131;BME280;18639;50.716;7.086;2022-10-26T12:08:27;100424.81;;;19.38;94.47
32131;BME280;18639;50.716;7.086;2022-10-26T12:11:06;100470.47;;;19.71;90.34
32131;BME280;18639;50.716;7.086;2022-10-26T12:16:53;100475.16;;;19.67;90.19
32131;BME280;18639;50.716;7.086;2022-10-26T12:19:30;100472.34;;;19.61;91.00
32131;BME280;18639;50.716;7.086;2022-10-26T12:21:58;100486.25;;;19.61;91.17
32131;BME280;18639;50.716;7.086;2022-10-26T12:24:30;100481.94;;;19.52;93.80
32131;BME280;18639;50.716;7.086;2022-10-26T12:27:04;100479.31;;;19.52;92.29
32131;BME280;18639;50.716;7.086;2022-10-26T12:29:32;100496.56;;;19.55;93.64
32131;BME280;18639;50.716;7.086;2022-10-26T12:32:03;100493.41;;;19.51;93.60
32131;BME280;18639;50.716;7.086;2022-10-26T12:41:56;100495.63;;;19.64;96.80
32131;BME280;18639;50.716;7.086;2022-10-26T12:47:06;100512.47;;;19.79;95.37
32131;BME280;18639;50.716;7.086;2022-10-26T13:00:47;100523.88;;;19.96;90.77
32131;BME280;18639;50.716;7.086;2022-10-26T13:03:30;100509.09;;;19.95;91.81
32131;BME280;18639;50.716;7.086;2022-10-26T13:06:24;100512.06;;;19.92;92.53
32131;BME280;18639;50.716;7.086;2022-10-26T13:08:55;100519.59;;;19.95;92.73
32131;BME280;18639;50.716;7.086;2022-10-26T13:11:35;100513.03;;;19.91;92.83
32131;BME280;18639;50.716;7.086;2022-10-26T13:14:13;100516.84;;;19.96;91.35
32131;BME280;18639;50.716;7.086;2022-10-26T13:16:43;100516.38;;;20.01;91.88
32131;BME280;18639;50.716;7.086;2022-10-26T13:19:22;100509.09;;;19.95;92.83
32131;BME280;18639;50.716;7.086;2022-10-26T13:21:48;100523.25;;;20.02;91.54
32131;BME280;18639;50.716;7.086;2022-10-26T13:24:13;100512.06;;;19.92;91.39
32131;BME280;18639;50.716;7.086;2022-10-26T13:29:29;100525.81;;;19.94;91.05
32131;BME280;18639;50.716;7.086;2022-10-26T13:31:55;100534.97;;;19.90;91.40
32131;BME280;18639;50.716;7.086;2022-10-26T13:34:23;100516.06;;;19.78;93.40
32131;BME280;18639;50.716;7.086;2022-10-26T13:39:42;100541.16;;;19.81;91.94
32131;BME280;18639;50.716;7.086;2022-10-26T13:42:14;100552.63;;;19.80;94.03
32131;BME280;18639;50.716;7.086;2022-10-26T13:47:24;100543.94;;;19.79;94.01
32131;BME280;18639;50.716;7.086;2022-10-26T13:49:53;100550.28;;;19.76;92.13
32131;BME280;18639;50.716;7.086;2022-10-26T13:52:33;100549.03;;;19.81;89.65
32131;BME280;18639;50.716;7.086;2022-10-26T13:55:19;100552.78;;;19.78;91.46
32131;BME280;18639;50.716;7.086;2022-10-26T14:00:24;100545.03;;;19.76;89.81
32131;BME280;18639;50.716;7.086;2022-10-26T14:02:49;100550.59;;;19.73;88.11
32131;BME280;18639;50.716;7.086;2022-10-26T14:05:17;100548.59;;;19.67;87.95
32131;BME280;18639;50.716;7.086;2022-10-26T14:07:53;100560.59;;;19.70;88.89
32131;BME280;18639;50.716;7.086;2022-10-26T14:10:37;100563.81;;;19.64;90.74
32131;BME280;18639;50.716;7.086;2022-10-26T14:13:07;100560.97;;;19.57;93.34
32131;BME280;18639;50.716;7.086;2022-10-26T14:15:33;100559.53;;;19.45;94.02
32131;BME280;18639;50.716;7.086;2022-10-26T14:18:02;100577.22;;;19.43;97.09
32131;BME280;18639;50.716;7.086;2022-10-26T14:20:29;100571.22;;;19.33;96.67
32131;BME280;18639;50.716;7.086;2022-10-26T14:22:55;100570.03;;;19.27;96.31
32131;BME280;18639;50.716;7.086;2022-10-26T14:25:23;100576.22;;;19.26;91.65
32131;BME280;18639;50.716;7.086;2022-10-26T14:27:51;100575.91;;;19.29;92.98
32131;BME280;18639;50.716;7.086;2022-10-26T14:30:31;100578.53;;;19.29;93.95
32131;BME280;18639;50.716;7.086;2022-10-26T14:32:57;100590.28;;;19.25;94.12
32131;BME280;18639;50.716;7.086;2022-10-26T14:35:27;100592.41;;;19.22;92.92
32131;BME280;18639;50.716;7.086;2022-10-26T14:37:59;100591.03;;;19.18;93.57
32131;BME280;18639;50.716;7.086;2022-10-26T14:40:27;100574.63;;;18.98;95.11
32131;BME280;18639;50.716;7.086;2022-10-26T14:42:56;100593.19;;;19.05;95.92
32131;BME280;18639;50.716;7.086;2022-10-26T14:45:27;100604.41;;;18.97;97.12
32131;BME280;18639;50.716;7.086;2022-10-26T14:47:53;100537.09;;;18.52;99.86
32131;BME280;18639;50.716;7.086;2022-10-26T14:50:21;100594.56;;;18.81;100.00
32131;BME280;18639;50.716;7.086;2022-10-26T14:52:56;100594.59;;;18.72;100.00
32131;BME280;18639;50.716;7.086;2022-10-26T14:55:23;100571.56;;;18.48;100.00
32131;BME280;18639;50.716;7.086;2022-10-26T14:57:51;100603.47;;;18.61;100.00
32131;BME280;18639;50.716;7.086;2022-10-26T15:00:22;100599.78;;;18.54;100.00